Time;durP1;ratioP1;P1;durP2;ratioP2;P2;SDS_P1;SDS_P2;PMS_P1;PMS_P2;Temp;Humidity;BMP_temperature;BMP_pressure;BME280_temperature;BME280_humidity;BME280_pressure;Samples;Min_cycle;Max_cycle;Signal;HPM_P1;HPM_P2
2023/10/13 00:03:46;;;;;;;39.80;28.80;;;;;;;9.93;100.00;100515.73;223610;1263;139895;-82
2023/10/13 00:09:43;;;;;;;;;;;;;;;;;;;;;
2023/10/13 00:15:27;;;;;;;;;;;;;;;10.15;100.00;100513.95;224263;1263;390253;-83
2023/10/13 00:21:55;;;;;;;41.90;26.60;;;;;;;10.24;100.00;100519.73;224103;1263;126710;-82
2023/10/13 00:27:24;;;;;;;;;;;;;;;;;;;;;
2023/10/13 00:33:42;;;;;;;96.60;84.30;;;;;;;10.42;100.00;100522.51;223740;1263;140629;-83
2023/10/13 00:39:19;;;;;;;107.00;96.30;;;;;;;10.52;100.00;100526.65;224099;1266;139272;-83
2023/10/13 00:45:21;;;;;;;121.90;111.20;;;;;;;10.61;100.00;100522.27;224151;1264;140426;-83
2023/10/13 00:51:06;;;;;;;;;;;;;;;;;;;;;
2023/10/13 00:57:04;;;;;;;150.00;136.50;;;;;;;10.76;100.00;100500.59;224254;1263;140292;-82
2023/10/13 01:03:26;;;;;;;210.90;191.50;;;;;;;10.84;100.00;100499.11;223598;1264;140963;-83
2023/10/13 01:14:57;;;;;;;249.10;226.00;;;;;;;10.98;100.00;100495.09;224077;1264;140422;-83
2023/10/13 01:20:38;;;;;;;;;;;;;;;;;;;;;
2023/10/13 01:26:35;;;;;;;318.60;288.80;;;;;;;11.07;100.00;100485.73;224309;1263;139797;-83
2023/10/13 01:32:25;;;;;;;;;;;;;;;;;;;;;
2023/10/13 01:38:02;;;;;;;334.00;302.50;;;;;;;11.18;100.00;100462.48;224233;1264;140820;-83
2023/10/13 01:44:03;;;;;;;357.80;322.10;;;;;;;11.20;100.00;100465.88;223763;1263;140857;-83
2023/10/13 01:50:06;;;;;;;324.30;294.40;;;;;;;11.24;100.00;100472.59;224343;1264;140006;-83
2023/10/13 01:55:58;;;;;;;;;;;;;;;;;;;;;
2023/10/13 02:02:06;;;;;;;348.50;316.10;;;;;;;11.31;100.00;100481.32;223825;1263;140944;-82
2023/10/13 02:08:11;;;;;;;409.90;369.70;;;;;;;11.35;100.00;100482.14;224344;1263;138680;-83
2023/10/13 02:13:56;;;;;;;391.70;353.40;;;;;;;11.37;100.00;100476.89;223776;1265;142469;-82
2023/10/13 02:19:39;;;;;;;397.20;353.50;;;;;;;11.42;100.00;100476.77;224344;1263;139674;-83
2023/10/13 02:26:00;;;;;;;424.60;377.70;;;;;;;11.46;100.00;100468.07;224258;1264;224774;-83
2023/10/13 02:31:14;;;;;;;405.70;358.40;;;;;;;11.51;100.00;100485.19;223758;1263;140631;-83
2023/10/13 02:37:03;;;;;;;;;;;;;;;;;;;;;
2023/10/13 02:42:39;;;;;;;445.30;392.80;;;;;;;11.55;100.00;100482.47;223609;1263;141139;-83
2023/10/13 02:48:00;;;;;;;;;;;;;;;;;;;;;
2023/10/13 02:53:49;;;;;;;;;;;;;;;;;;;;;
2023/10/13 02:59:34;;;;;;;435.30;385.60;;;;;;;11.59;100.00;100465.04;224393;1263;95914;-83
2023/10/13 03:05:50;;;;;;;435.70;375.60;;;;;;;11.57;100.00;100467.78;224745;1263;96019;-83
2023/10/13 03:11:42;;;;;;;446.10;396.60;;;;;;;11.60;100.00;100471.67;223771;1263;140996;-83
2023/10/13 03:16:40;;;;;;;411.30;356.10;;;;;;;11.63;100.00;100465.48;224242;1263;139870;-83
2023/10/13 03:22:31;;;;;;;387.20;349.80;;;;;;;11.64;100.00;100466.19;223589;1263;140872;-83
2023/10/13 03:28:34;;;;;;;398.10;352.80;;;;;;;11.64;100.00;100470.76;224193;1263;139443;-83
2023/10/13 03:34:29;;;;;;;411.30;362.80;;;;;;;11.65;100.00;100467.45;223685;1263;140793;-84
2023/10/13 03:46:42;;;;;;;378.00;339.70;;;;;;;11.72;100.00;100461.83;223835;1263;139715;-83
2023/10/13 03:52:44;;;;;;;378.80;338.10;;;;;;;11.67;100.00;100453.14;223818;1263;141152;-83
2023/10/13 03:58:17;;;;;;;393.50;355.50;;;;;;;11.66;100.00;100454.31;224351;1265;140219;-82
2023/10/13 04:04:03;;;;;;;430.50;383.90;;;;;;;11.69;100.00;100450.15;223753;1263;141445;-83
2023/10/13 04:34:01;;;;;;;461.40;403.70;;;;;;;11.71;100.00;100407.48;223325;1263;140860;-83
2023/10/13 04:39:09;;;;;;;444.90;391.60;;;;;;;11.75;100.00;100405.77;224301;1263;139455;-83
2023/10/13 06:33:08;;;;;;;1945.90;914.20;;;;;;;12.45;100.00;100415.23;223649;1263;141150;-83
2023/10/13 06:38:27;;;;;;;1865.20;827.40;;;;;;;12.52;100.00;100416.90;224083;1265;140472;-82
2023/10/13 06:43:55;;;;;;;1845.10;886.50;;;;;;;12.59;100.00;100413.06;223847;1263;141093;-83
2023/10/13 06:49:51;;;;;;;1999.90;910.30;;;;;;;12.64;100.00;100404.40;224179;1263;139941;-83
2023/10/13 06:55:28;;;;;;;;;;;;;;;;;;;;;
2023/10/13 07:01:23;;;;;;;1999.90;952.90;;;;;;;12.77;100.00;100413.27;223658;1263;142103;-83
2023/10/13 07:06:24;;;;;;;1999.90;950.40;;;;;;;12.82;100.00;100404.66;224218;1263;140102;-84
2023/10/13 07:11:42;;;;;;;1999.90;994.20;;;;;;;12.90;100.00;100410.84;223494;1263;140895;-84
2023/10/13 07:17:45;;;;;;;1999.90;995.40;;;;;;;12.97;100.00;100413.08;224353;1263;95914;-86
2023/10/13 07:29:07;;;;;;;;;;;;;;;;;;;;;
2023/10/13 07:34:47;;;;;;;1999.90;999.90;;;;;;;13.22;100.00;100392.88;223791;1263;140283;-84
2023/10/13 07:46:31;;;;;;;1999.90;999.70;;;;;;;13.41;100.00;100385.45;224123;1263;139656;-84
2023/10/13 07:51:36;;;;;;;;;;;;;;;;;;;;;
2023/10/13 07:57:14;;;;;;;;;;;;;;;;;;;;;
2023/10/13 08:02:59;;;;;;;;;;;;;;;;;;;;;
2023/10/13 08:08:00;;;;;;;1999.90;999.90;;;;;;;13.78;100.00;100370.36;224191;1264;140018;-86
2023/10/13 08:13:12;;;;;;;;;;;;;;;;;;;;;
2023/10/13 08:19:10;;;;;;;1999.90;999.90;;;;;;;13.93;100.00;100348.98;224252;1267;139826;-85
2023/10/13 08:30:51;;;;;;;1999.90;999.90;;;;;;;14.16;100.00;100345.96;223713;1267;141183;-85
2023/10/13 08:36:41;;;;;;;1999.90;976.30;;;;;;;14.29;100.00;100347.34;222086;1263;3056099;-85
2023/10/13 08:42:28;;;;;;;;;;;;;;;;;;;;;
2023/10/13 08:48:19;;;;;;;1999.90;968.90;;;;;;;14.56;100.00;100342.75;224366;1266;95995;-85
2023/10/13 08:59:52;;;;;;;1999.90;908.10;;;;;;;14.86;100.00;100328.05;224169;1263;140050;-84
2023/10/13 09:04:54;;;;;;;1999.90;893.20;;;;;;;14.99;100.00;100321.83;224117;1263;367910;-85
2023/10/13 09:11:05;;;;;;;1999.90;939.40;;;;;;;15.13;100.00;100314.91;223627;1263;141184;-86
2023/10/13 09:17:08;;;;;;;1999.90;774.50;;;;;;;15.32;100.00;100313.64;224291;1263;139787;-85
2023/10/13 09:22:42;;;;;;;1999.90;999.90;;;;;;;15.50;100.00;100311.33;223665;1263;141638;-84
2023/10/13 09:28:40;;;;;;;1999.90;999.90;;;;;;;15.69;100.00;100305.08;224165;1264;139722;-85
2023/10/13 09:33:55;;;;;;;1999.90;999.90;;;;;;;16.02;100.00;100291.51;224009;1264;141351;-83
2023/10/13 09:39:13;;;;;;;1999.90;999.90;;;;;;;16.39;100.00;100284.25;224290;1264;140134;-84
2023/10/13 09:44:40;;;;;;;1999.90;999.90;;;;;;;16.81;100.00;100279.15;223820;1267;140033;-85
2023/10/13 09:50:44;;;;;;;;;;;;;;;17.22;100.00;100284.00;223634;1264;143257;-84
2023/10/13 09:55:31;;;;;;;1999.90;918.50;;;;;;;17.43;100.00;100270.36;224199;1265;126718;-84
2023/10/13 10:01:06;;;;;;;1999.90;999.90;;;;;;;17.64;100.00;100259.69;223549;1267;141608;-84
2023/10/13 10:06:30;;;;;;;1999.90;999.90;;;;;;;17.87;100.00;100249.04;224266;1263;140289;-85
2023/10/13 10:12:25;;;;;;;1999.90;999.90;;;;;;;18.08;100.00;100243.47;223685;1264;140950;-84
2023/10/13 10:17:54;;;;;;;1999.90;999.90;;;;;;;18.36;100.00;100229.05;224382;1263;96566;-84
2023/10/13 10:23:40;;;;;;;;;;;;;;;;;;;;;
2023/10/13 10:28:56;;;;;;;;;;;;;;;;;;;;;
2023/10/13 10:34:24;;;;;;;1999.90;908.10;;;;;;;19.03;100.00;100214.31;223867;1264;139807;-83
2023/10/13 10:39:45;;;;;;;1999.90;858.70;;;;;;;19.33;100.00;100194.84;223764;1264;141498;-83
2023/10/13 10:45:59;;;;;;;;;;;;;;;;;;;;;
2023/10/13 10:51:48;;;;;;;1999.90;969.90;;;;;;;19.72;100.00;100179.52;223747;1264;140991;-83
2023/10/13 11:02:19;;;;;;;1999.90;999.90;;;;;;;19.92;100.00;100176.43;223773;1264;141062;-82
2023/10/13 11:07:50;;;;;;;1999.90;599.60;;;;;;;19.91;100.00;100183.25;224167;1264;140458;-84
2023/10/13 11:13:43;;;;;;;1999.90;854.30;;;;;;;19.87;100.00;100173.30;223720;1264;141304;-84
2023/10/13 11:19:12;;;;;;;1999.90;999.90;;;;;;;19.84;100.00;100164.20;224109;1264;141032;-84
2023/10/13 11:24:41;;;;;;;1999.90;999.90;;;;;;;19.74;100.00;100160.70;223811;1264;140835;-84
2023/10/13 11:29:41;;;;;;;1999.90;925.50;;;;;;;19.71;100.00;100145.41;224039;1264;141736;-82
2023/10/13 11:35:05;;;;;;;;;;;;;;;;;;;;;
2023/10/13 11:52:49;;;;;;;1999.90;999.90;;;;;;;19.61;100.00;100105.51;223617;1264;141788;-83
2023/10/13 11:57:59;;;;;;;1999.90;999.90;;;;;;;19.62;100.00;100095.96;223943;1263;140720;-83
2023/10/13 12:10:05;;;;;;;1999.90;999.90;;;;;;;19.64;100.00;100082.98;224265;1263;140250;-84
2023/10/13 12:15:09;;;;;;;1999.90;999.90;;;;;;;19.72;100.00;100079.48;223859;1263;390782;-83
2023/10/13 12:20:45;;;;;;;1999.90;999.90;;;;;;;19.75;100.00;100073.70;223798;1263;140939;-85
2023/10/13 12:31:30;;;;;;;1999.90;999.90;;;;;;;19.88;100.00;100052.94;223526;1263;141071;-84
2023/10/13 12:53:37;;;;;;;1999.90;999.90;;;;;;;20.00;100.00;100027.96;223841;1263;140887;-82
2023/10/13 12:59:15;;;;;;;1999.90;999.90;;;;;;;20.01;100.00;100027.91;224238;1264;140368;-83
2023/10/13 13:04:52;;;;;;;1999.90;999.90;;;;;;;19.97;100.00;100010.03;223872;1263;141027;-82
2023/10/13 13:10:44;;;;;;;1999.90;999.90;;;;;;;20.00;100.00;100014.64;223618;1263;141384;-83
2023/10/13 13:16:13;;;;;;;1999.90;999.90;;;;;;;20.00;100.00;100009.42;224361;1263;140163;-83
2023/10/13 13:21:52;;;;;;;1999.90;780.30;;;;;;;19.95;100.00;100002.17;223658;1263;140966;-83
2023/10/13 13:27:19;;;;;;;1999.90;999.90;;;;;;;19.90;100.00;99994.86;224463;1263;140950;-83
2023/10/13 13:32:32;;;;;;;1999.90;999.90;;;;;;;19.86;100.00;99983.66;223805;1263;140998;-83
2023/10/13 13:37:44;;;;;;;;;;;;;;;;;;;;;
2023/10/13 13:43:17;;;;;;;;;;;;;;;;;;;;;
2023/10/13 13:48:32;;;;;;;1999.90;999.90;;;;;;;19.89;100.00;99950.35;224381;1264;139829;-83
2023/10/13 13:53:47;;;;;;;1999.90;812.10;;;;;;;19.92;100.00;99940.70;223914;1263;141173;-83
2023/10/13 13:59:25;;;;;;;;;;;;;;;;;;;;;
2023/10/13 14:05:15;;;;;;;1999.90;802.80;;;;;;;19.91;100.00;99934.23;224242;1263;386772;-85
2023/10/13 14:11:13;;;;;;;1999.90;965.40;;;;;;;19.90;100.00;99925.99;223875;1263;141668;-83
2023/10/13 14:16:27;;;;;;;1999.90;985.90;;;;;;;19.90;100.00;99929.16;224136;1264;139594;-83
2023/10/13 14:21:42;;;;;;;1999.90;999.90;;;;;;;19.90;100.00;99915.76;223789;1263;141709;-84
2023/10/13 14:27:16;;;;;;;1999.90;999.90;;;;;;;19.89;100.00;99902.63;224525;1264;140414;-84
2023/10/13 14:32:28;;;;;;;1999.90;999.90;;;;;;;19.90;100.00;99903.97;223875;1263;141504;-82
2023/10/13 14:37:58;;;;;;;;;;;;;;;;;;;;;
2023/10/13 14:43:38;;;;;;;;;;;;;;;;;;;;;
2023/10/13 14:49:22;;;;;;;1999.90;881.00;;;;;;;19.83;100.00;99870.80;224212;1263;140018;-85
2023/10/13 14:54:42;;;;;;;1999.90;792.50;;;;;;;19.80;100.00;99871.20;224016;1263;388664;-85
2023/10/13 15:00:02;;;;;;;1999.90;999.90;;;;;;;19.82;100.00;99865.58;223736;1263;140793;-84
2023/10/13 15:05:37;;;;;;;1999.90;632.90;;;;;;;19.81;100.00;99857.38;224404;1264;139922;-83
2023/10/13 15:10:40;;;;;;;1999.90;999.90;;;;;;;19.80;100.00;99849.18;223726;1263;141463;-82
2023/10/13 15:16:05;;;;;;;1999.90;999.90;;;;;;;19.79;100.00;99842.34;224423;1263;139669;-82
2023/10/13 15:21:12;;;;;;;1999.90;918.80;;;;;;;19.77;100.00;99834.45;223921;1263;141205;-84
2023/10/13 15:26:27;;;;;;;1999.90;999.90;;;;;;;19.76;100.00;99832.91;224397;1264;140025;-85
2023/10/13 15:36:42;;;;;;;1999.90;999.90;;;;;;;19.73;100.00;99822.63;224114;1263;139995;-85
2023/10/13 15:41:46;;;;;;;1999.90;999.90;;;;;;;19.72;100.00;99822.91;223756;1263;140853;-85
2023/10/13 15:47:06;;;;;;;;;;;;;;;;;;;;;
2023/10/13 15:52:41;;;;;;;1999.90;999.90;;;;;;;19.70;100.00;99809.35;223905;1264;141108;-83
2023/10/13 15:58:05;;;;;;;1999.90;999.90;;;;;;;19.68;100.00;99801.20;224423;1263;139519;-84
2023/10/13 16:03:52;;;;;;;1999.90;999.90;;;;;;;19.64;100.00;99800.95;223642;1263;140697;-82
2023/10/13 16:08:59;;;;;;;1999.90;999.90;;;;;;;19.58;100.00;99786.33;224381;1263;139721;-82
2023/10/13 16:14:00;;;;;;;1999.90;999.90;;;;;;;19.54;100.00;99778.42;223868;1263;141538;-83
2023/10/13 16:19:22;;;;;;;1999.90;999.90;;;;;;;19.48;100.00;99782.46;224597;1263;140053;-84
2023/10/13 16:24:33;;;;;;;1999.90;999.90;;;;;;;19.41;100.00;99776.10;223965;1263;384288;-85
2023/10/13 16:29:56;;;;;;;1999.90;999.90;;;;;;;19.36;100.00;99779.39;223973;1264;140929;-85
2023/10/13 16:35:07;;;;;;;1999.90;999.90;;;;;;;19.29;100.00;99773.08;224227;1264;139735;-85
2023/10/13 16:40:51;;;;;;;1999.90;999.90;;;;;;;19.24;100.00;99774.77;223816;1265;140991;-84
2023/10/13 16:46:26;;;;;;;1999.90;999.90;;;;;;;19.18;100.00;99772.64;224180;1267;140147;-85
2023/10/13 16:52:00;;;;;;;1999.90;999.90;;;;;;;19.13;100.00;99773.61;223830;1264;140938;-84
2023/10/13 16:57:26;;;;;;;1999.90;999.90;;;;;;;19.08;100.00;99763.98;224352;1265;139738;-84
2023/10/13 17:03:24;;;;;;;1999.90;999.90;;;;;;;19.04;100.00;99762.98;223768;1265;141536;-85
2023/10/13 17:09:13;;;;;;;1999.90;999.90;;;;;;;19.00;100.00;99765.60;224250;1264;139998;-85
2023/10/13 17:14:58;;;;;;;;;;;;;;;;;;;;;
2023/10/13 17:20:09;;;;;;;1999.90;999.90;;;;;;;18.90;100.00;99751.69;224169;1263;141013;-84
2023/10/13 17:25:42;;;;;;;;;;;;;;;;;;;;;
2023/10/13 17:30:49;;;;;;;1999.90;902.90;;;;;;;18.82;100.00;99735.92;223829;1263;141004;-84
2023/10/13 17:35:53;;;;;;;1999.90;999.90;;;;;;;18.77;100.00;99723.27;224491;1265;95835;-85
2023/10/13 17:40:53;;;;;;;1999.90;999.90;;;;;;;18.73;100.00;99716.80;223759;1263;140777;-86
2023/10/13 17:46:31;;;;;;;;;;;;;;;;;;;;;
2023/10/13 17:51:55;;;;;;;1999.90;999.90;;;;;;;18.63;100.00;99713.17;223594;1263;141608;-84
2023/10/13 17:56:59;;;;;;;1999.90;999.90;;;;;;;18.58;100.00;99704.58;224141;1263;140177;-85
2023/10/13 18:02:46;;;;;;;;;;;;;;;;;;;;;
2023/10/13 18:08:20;;;;;;;1999.90;999.90;;;;;;;18.48;100.00;99701.06;224344;1264;139873;-83
2023/10/13 18:14:15;;;;;;;1999.90;930.30;;;;;;;18.44;100.00;99696.89;223981;1263;141217;-85
2023/10/13 18:19:57;;;;;;;1999.90;999.90;;;;;;;18.45;100.00;99694.39;223968;1263;141087;-84
2023/10/13 18:25:43;;;;;;;1999.90;999.90;;;;;;;18.47;100.00;99681.69;224353;1263;140119;-86
2023/10/13 18:31:44;;;;;;;1999.90;999.90;;;;;;;18.52;100.00;99681.53;223792;1263;141301;-84
2023/10/13 18:36:52;;;;;;;1999.90;743.10;;;;;;;18.57;100.00;99673.53;224300;1262;139858;-85
2023/10/13 18:42:29;;;;;;;;;;;;;;;;;;;;;
2023/10/13 18:47:44;;;;;;;1999.90;867.10;;;;;;;18.64;100.00;99665.43;224319;1265;109340;-83
2023/10/13 18:52:57;;;;;;;1999.90;999.90;;;;;;;18.68;100.00;99667.05;223855;1264;141014;-86
2023/10/13 18:58:53;;;;;;;1999.90;862.30;;;;;;;18.71;100.00;99666.71;224138;1265;139706;-84
2023/10/13 19:04:31;;;;;;;;;;;;;;;;;;;;;
2023/10/13 19:09:54;;;;;;;1999.90;843.00;;;;;;;18.76;100.00;99641.36;223832;1265;143082;-84
2023/10/13 19:15:40;;;;;;;;;;;;;;;;;;;;;
2023/10/13 19:20:52;;;;;;;;;;;;;;;;;;;;;
2023/10/13 19:26:54;;;;;;;1999.90;960.40;;;;;;;18.87;100.00;99645.45;224266;1264;139766;-86
2023/10/13 19:32:30;;;;;;;1999.90;940.90;;;;;;;18.88;100.00;99651.53;223764;1265;140787;-85
2023/10/13 19:37:48;;;;;;;;;;;;;;;;;;;;;
2023/10/13 19:43:02;;;;;;;;;;;;;;;;;;;;;
2023/10/13 19:48:22;;;;;;;1999.90;956.30;;;;;;;18.99;100.00;99652.88;224249;1264;108936;-86
2023/10/13 19:53:31;;;;;;;1999.90;973.70;;;;;;;19.00;100.00;99658.35;223892;1266;141161;-86
2023/10/13 19:58:46;;;;;;;;;;;;;;;;;;;;;
2023/10/13 20:04:13;;;;;;;1999.90;940.70;;;;;;;19.04;100.00;99662.28;223784;1265;140844;-86
2023/10/13 20:09:55;;;;;;;1999.90;999.90;;;;;;;19.07;100.00;99654.92;223556;1265;140672;-84
2023/10/13 20:15:07;;;;;;;1999.90;993.00;;;;;;;19.10;100.00;99650.42;224317;1265;141297;-86
2023/10/13 20:20:11;;;;;;;1999.90;999.90;;;;;;;19.13;100.00;99639.27;223567;1266;140931;-85
2023/10/13 20:25:23;;;;;;;1999.90;999.90;;;;;;;19.14;100.00;99627.55;224345;1263;140428;-85
2023/10/13 20:30:45;;;;;;;1999.90;998.00;;;;;;;19.16;100.00;99627.27;223718;1263;141374;-85
2023/10/13 20:36:37;;;;;;;1999.90;999.90;;;;;;;19.16;100.00;99612.60;221680;1263;3500181;-84
2023/10/13 20:42:17;;;;;;;1999.90;999.90;;;;;;;19.15;100.00;99604.66;223794;1263;141024;-85
2023/10/13 20:48:09;;;;;;;1999.90;961.90;;;;;;;19.14;100.00;99598.72;224227;1266;139312;-85
2023/10/13 20:53:41;;;;;;;;;;;;;;;;;;;;;
2023/10/13 20:58:56;;;;;;;1999.90;988.60;;;;;;;19.11;100.00;99583.06;224232;1263;139727;-86
2023/10/13 21:04:42;;;;;;;1999.90;999.90;;;;;;;19.09;100.00;99575.30;223570;1263;140558;-85
2023/10/13 21:10:33;;;;;;;;;;;;;;;;;;;;;
2023/10/13 21:16:21;;;;;;;1999.90;999.90;;;;;;;19.05;100.00;99562.63;224270;1263;139789;-85
2023/10/13 21:22:21;;;;;;;;;;;;;;;;;;;;;
2023/10/13 21:28:07;;;;;;;;;;;;;;;;;;;;;
2023/10/13 21:34:07;;;;;;;;;;;;;;;;;;;;;
2023/10/13 21:39:53;;;;;;;;;;;;;;;;;;;;;
2023/10/13 21:45:46;;;;;;;1999.90;999.90;;;;;;;18.89;99.45;99528.65;224149;1263;140128;-86
2023/10/13 21:51:20;;;;;;;;;;;;;;;;;;;;;
2023/10/13 21:57:20;;;;;;;1999.90;999.90;;;;;;;18.88;98.62;99515.41;224277;1263;139580;-85
2023/10/13 22:02:51;;;;;;;;;;;;;;;;;;;;;
2023/10/13 22:08:24;;;;;;;1999.90;999.90;;;;;;;18.88;98.03;99499.30;224564;1263;138526;-85
2023/10/13 22:13:59;;;;;;;1999.90;999.90;;;;;;;18.89;97.48;99496.77;223701;1263;141904;-83
2023/10/13 22:19:29;;;;;;;;;;;;;;;;;;;;;
2023/10/13 22:25:11;;;;;;;;;;;;;;;;;;;;;
2023/10/13 22:31:13;;;;;;;1999.90;999.90;;;;;;;18.99;96.12;99487.35;223875;1263;141039;-84
2023/10/13 22:37:04;;;;;;;;;;;;;;;;;;;;;
2023/10/13 22:42:55;;;;;;;;;;;;;;;;;;;;;
2023/10/13 22:48:56;;;;;;;1999.90;999.90;;;;;;;19.05;94.80;99449.59;224333;1263;111126;-85
2023/10/13 22:54:46;;;;;;;;;;;;;;;;;;;;;
2023/10/13 23:06:49;;;;;;;1999.90;999.90;;;;;;;19.11;93.75;99458.75;224494;1263;139702;-83
2023/10/13 23:11:48;;;;;;;1999.90;999.90;;;;;;;19.11;93.87;99436.81;223723;1263;140693;-85
2023/10/13 23:17:20;;;;;;;1999.90;999.90;;;;;;;19.10;94.74;99420.70;224314;1263;139514;-85
2023/10/13 23:22:30;;;;;;;1999.90;999.90;;;;;;;19.07;94.93;99413.46;223632;1263;140790;-85
2023/10/13 23:28:03;;;;;;;1999.90;999.90;;;;;;;19.03;94.74;99402.98;224303;1263;139973;-85
2023/10/13 23:33:16;;;;;;;1999.90;999.90;;;;;;;18.98;93.96;99391.83;223741;1264;140254;-85
2023/10/13 23:39:10;;;;;;;;;;;;;;;;;;;;;
2023/10/13 23:44:32;;;;;;;1999.90;999.90;;;;;;;18.93;93.12;99365.75;223779;1263;140290;-85
2023/10/13 23:50:32;;;;;;;1999.90;987.50;;;;;;;18.93;92.39;99357.80;223755;1267;140964;-86
2023/10/13 23:56:43;;;;;;;1999.90;983.20;;;;;;;18.93;91.58;99351.09;224166;1263;139526;-83
